sensor_id;sensor_type;location;lat;lon;timestamp;P1;durP1;ratioP1;P2;durP2;ratioP2
2213;SDS011;1113;42.018;23.986;2023-05-16T00:01:06;58.03;;;39.17;;
2213;SDS011;1113;42.018;23.986;2023-05-16T00:03:34;56.30;;;39.10;;
2213;SDS011;1113;42.018;23.986;2023-05-16T00:06:02;67.43;;;44.77;;
2213;SDS011;1113;42.018;23.986;2023-05-16T00:08:29;67.10;;;43.33;;
2213;SDS011;1113;42.018;23.986;2023-05-16T00:10:56;70.03;;;41.33;;
2213;SDS011;1113;42.018;23.986;2023-05-16T00:13:23;62.57;;;42.53;;
2213;SDS011;1113;42.018;23.986;2023-05-16T00:15:50;59.60;;;38.80;;
2213;SDS011;1113;42.018;23.986;2023-05-16T00:18:18;52.03;;;35.30;;
2213;SDS011;1113;42.018;23.986;2023-05-16T00:20:46;53.43;;;37.07;;
2213;SDS011;1113;42.018;23.986;2023-05-16T00:23:13;47.77;;;36.13;;
2213;SDS011;1113;42.018;23.986;2023-05-16T00:25:41;55.50;;;37.90;;
2213;SDS011;1113;42.018;23.986;2023-05-16T00:28:08;50.87;;;35.67;;
2213;SDS011;1113;42.018;23.986;2023-05-16T00:30:35;57.60;;;39.77;;
2213;SDS011;1113;42.018;23.986;2023-05-16T00:33:02;59.13;;;38.17;;
2213;SDS011;1113;42.018;23.986;2023-05-16T00:35:30;66.40;;;41.47;;
2213;SDS011;1113;42.018;23.986;2023-05-16T00:37:57;63.40;;;41.30;;
2213;SDS011;1113;42.018;23.986;2023-05-16T00:40:23;62.83;;;38.00;;
2213;SDS011;1113;42.018;23.986;2023-05-16T00:42:50;66.43;;;40.37;;
2213;SDS011;1113;42.018;23.986;2023-05-16T00:45:17;63.30;;;39.83;;
2213;SDS011;1113;42.018;23.986;2023-05-16T00:47:44;77.87;;;43.50;;
2213;SDS011;1113;42.018;23.986;2023-05-16T00:50:11;70.87;;;45.50;;
2213;SDS011;1113;42.018;23.986;2023-05-16T00:52:39;110.20;;;48.40;;
2213;SDS011;1113;42.018;23.986;2023-05-16T00:55:06;95.63;;;47.17;;
2213;SDS011;1113;42.018;23.986;2023-05-16T00:57:34;92.33;;;48.13;;
2213;SDS011;1113;42.018;23.986;2023-05-16T01:00:01;93.30;;;47.13;;
2213;SDS011;1113;42.018;23.986;2023-05-16T01:02:29;104.20;;;51.97;;
2213;SDS011;1113;42.018;23.986;2023-05-16T01:04:56;98.87;;;48.80;;
2213;SDS011;1113;42.018;23.986;2023-05-16T01:07:23;81.73;;;46.33;;
2213;SDS011;1113;42.018;23.986;2023-05-16T01:09:52;83.10;;;46.60;;
2213;SDS011;1113;42.018;23.986;2023-05-16T01:12:20;77.17;;;45.50;;
2213;SDS011;1113;42.018;23.986;2023-05-16T01:14:55;84.40;;;45.00;;
2213;SDS011;1113;42.018;23.986;2023-05-16T01:17:31;89.07;;;46.47;;
2213;SDS011;1113;42.018;23.986;2023-05-16T01:20:09;94.17;;;46.77;;
2213;SDS011;1113;42.018;23.986;2023-05-16T01:22:47;91.53;;;48.13;;
2213;SDS011;1113;42.018;23.986;2023-05-16T01:25:39;88.37;;;49.37;;
2213;SDS011;1113;42.018;23.986;2023-05-16T01:28:18;81.17;;;44.80;;
2213;SDS011;1113;42.018;23.986;2023-05-16T01:30:45;92.77;;;48.63;;
2213;SDS011;1113;42.018;23.986;2023-05-16T01:33:12;110.47;;;51.17;;
2213;SDS011;1113;42.018;23.986;2023-05-16T01:35:41;120.27;;;52.67;;
2213;SDS011;1113;42.018;23.986;2023-05-16T01:38:15;85.33;;;46.77;;
2213;SDS011;1113;42.018;23.986;2023-05-16T01:40:50;77.23;;;45.33;;
2213;SDS011;1113;42.018;23.986;2023-05-16T01:43:24;81.90;;;43.80;;
2213;SDS011;1113;42.018;23.986;2023-05-16T01:45:58;126.97;;;48.90;;
2213;SDS011;1113;42.018;23.986;2023-05-16T01:48:29;77.03;;;45.80;;
2213;SDS011;1113;42.018;23.986;2023-05-16T01:51:00;77.70;;;43.30;;
2213;SDS011;1113;42.018;23.986;2023-05-16T01:53:31;110.77;;;49.60;;
2213;SDS011;1113;42.018;23.986;2023-05-16T01:56:06;91.27;;;49.07;;
2213;SDS011;1113;42.018;23.986;2023-05-16T01:58:37;86.67;;;48.50;;
2213;SDS011;1113;42.018;23.986;2023-05-16T02:01:04;97.70;;;49.90;;
2213;SDS011;1113;42.018;23.986;2023-05-16T02:03:31;88.90;;;46.57;;
2213;SDS011;1113;42.018;23.986;2023-05-16T02:05:59;88.43;;;47.73;;
2213;SDS011;1113;42.018;23.986;2023-05-16T02:08:26;69.90;;;41.63;;
2213;SDS011;1113;42.018;23.986;2023-05-16T02:10:53;67.83;;;39.80;;
2213;SDS011;1113;42.018;23.986;2023-05-16T02:13:20;109.57;;;47.73;;
2213;SDS011;1113;42.018;23.986;2023-05-16T02:15:48;90.60;;;44.50;;
2213;SDS011;1113;42.018;23.986;2023-05-16T02:18:15;233.93;;;56.47;;
2213;SDS011;1113;42.018;23.986;2023-05-16T02:20:42;110.17;;;46.50;;
2213;SDS011;1113;42.018;23.986;2023-05-16T02:23:09;80.17;;;43.23;;
2213;SDS011;1113;42.018;23.986;2023-05-16T02:25:36;65.23;;;43.43;;
2213;SDS011;1113;42.018;23.986;2023-05-16T02:28:03;64.23;;;39.57;;
2213;SDS011;1113;42.018;23.986;2023-05-16T02:30:30;73.60;;;45.63;;
2213;SDS011;1113;42.018;23.986;2023-05-16T02:32:59;75.43;;;45.67;;
2213;SDS011;1113;42.018;23.986;2023-05-16T02:35:25;95.23;;;52.00;;
2213;SDS011;1113;42.018;23.986;2023-05-16T02:37:52;97.07;;;51.67;;
2213;SDS011;1113;42.018;23.986;2023-05-16T02:40:19;147.33;;;60.93;;
2213;SDS011;1113;42.018;23.986;2023-05-16T02:42:46;182.83;;;64.50;;
2213;SDS011;1113;42.018;23.986;2023-05-16T02:45:13;167.03;;;62.50;;
2213;SDS011;1113;42.018;23.986;2023-05-16T02:47:40;107.43;;;57.80;;
2213;SDS011;1113;42.018;23.986;2023-05-16T02:50:08;172.43;;;64.27;;
2213;SDS011;1113;42.018;23.986;2023-05-16T02:52:36;95.97;;;54.03;;
2213;SDS011;1113;42.018;23.986;2023-05-16T02:55:03;103.37;;;53.57;;
2213;SDS011;1113;42.018;23.986;2023-05-16T02:57:30;132.37;;;53.47;;
2213;SDS011;1113;42.018;23.986;2023-05-16T02:59:57;85.37;;;48.00;;
2213;SDS011;1113;42.018;23.986;2023-05-16T03:02:24;88.47;;;48.13;;
2213;SDS011;1113;42.018;23.986;2023-05-16T03:04:51;86.60;;;45.40;;
2213;SDS011;1113;42.018;23.986;2023-05-16T03:07:19;74.20;;;42.10;;
2213;SDS011;1113;42.018;23.986;2023-05-16T03:09:46;99.67;;;47.13;;
2213;SDS011;1113;42.018;23.986;2023-05-16T03:12:12;174.97;;;51.70;;
2213;SDS011;1113;42.018;23.986;2023-05-16T03:14:39;74.60;;;44.00;;
2213;SDS011;1113;42.018;23.986;2023-05-16T03:17:06;134.83;;;48.60;;
2213;SDS011;1113;42.018;23.986;2023-05-16T03:19:33;102.30;;;46.40;;
2213;SDS011;1113;42.018;23.986;2023-05-16T03:22:00;91.67;;;47.63;;
2213;SDS011;1113;42.018;23.986;2023-05-16T03:24:29;69.00;;;41.97;;
2213;SDS011;1113;42.018;23.986;2023-05-16T03:26:56;72.90;;;46.20;;
2213;SDS011;1113;42.018;23.986;2023-05-16T03:29:24;90.20;;;55.97;;
2213;SDS011;1113;42.018;23.986;2023-05-16T03:31:51;76.80;;;51.47;;
2213;SDS011;1113;42.018;23.986;2023-05-16T03:34:17;88.53;;;56.90;;
2213;SDS011;1113;42.018;23.986;2023-05-16T03:36:44;75.17;;;49.50;;
2213;SDS011;1113;42.018;23.986;2023-05-16T03:39:13;70.37;;;49.00;;
2213;SDS011;1113;42.018;23.986;2023-05-16T03:41:45;75.50;;;48.70;;
2213;SDS011;1113;42.018;23.986;2023-05-16T03:44:12;67.77;;;46.27;;
2213;SDS011;1113;42.018;23.986;2023-05-16T03:46:40;98.13;;;61.30;;
2213;SDS011;1113;42.018;23.986;2023-05-16T03:49:07;104.03;;;58.50;;
2213;SDS011;1113;42.018;23.986;2023-05-16T03:51:34;110.03;;;59.60;;
2213;SDS011;1113;42.018;23.986;2023-05-16T03:54:19;114.63;;;59.93;;
2213;SDS011;1113;42.018;23.986;2023-05-16T03:56:59;101.77;;;50.20;;
2213;SDS011;1113;42.018;23.986;2023-05-16T03:59:26;130.03;;;62.50;;
2213;SDS011;1113;42.018;23.986;2023-05-16T04:01:53;116.67;;;54.53;;
2213;SDS011;1113;42.018;23.986;2023-05-16T04:04:20;136.47;;;65.53;;
2213;SDS011;1113;42.018;23.986;2023-05-16T04:06:46;183.00;;;80.90;;
2213;SDS011;1113;42.018;23.986;2023-05-16T04:09:13;185.67;;;82.17;;
2213;SDS011;1113;42.018;23.986;2023-05-16T04:11:41;155.53;;;72.17;;
2213;SDS011;1113;42.018;23.986;2023-05-16T04:14:09;209.63;;;83.93;;
2213;SDS011;1113;42.018;23.986;2023-05-16T04:16:36;231.30;;;94.07;;
2213;SDS011;1113;42.018;23.986;2023-05-16T04:19:02;223.80;;;86.77;;
2213;SDS011;1113;42.018;23.986;2023-05-16T04:21:32;140.93;;;69.87;;
2213;SDS011;1113;42.018;23.986;2023-05-16T04:24:00;131.30;;;60.73;;
2213;SDS011;1113;42.018;23.986;2023-05-16T04:26:30;108.90;;;59.53;;
2213;SDS011;1113;42.018;23.986;2023-05-16T04:29:00;112.43;;;60.50;;
2213;SDS011;1113;42.018;23.986;2023-05-16T04:31:42;103.40;;;58.37;;
2213;SDS011;1113;42.018;23.986;2023-05-16T04:34:09;106.17;;;64.40;;
2213;SDS011;1113;42.018;23.986;2023-05-16T04:36:36;97.23;;;55.47;;
2213;SDS011;1113;42.018;23.986;2023-05-16T04:39:03;110.63;;;61.73;;
2213;SDS011;1113;42.018;23.986;2023-05-16T04:41:30;95.20;;;60.47;;
2213;SDS011;1113;42.018;23.986;2023-05-16T04:43:57;99.13;;;57.20;;
2213;SDS011;1113;42.018;23.986;2023-05-16T04:46:28;110.00;;;63.70;;
2213;SDS011;1113;42.018;23.986;2023-05-16T04:48:56;102.70;;;59.27;;
2213;SDS011;1113;42.018;23.986;2023-05-16T04:51:23;113.20;;;60.40;;
2213;SDS011;1113;42.018;23.986;2023-05-16T04:53:49;115.83;;;63.20;;
2213;SDS011;1113;42.018;23.986;2023-05-16T04:56:16;94.70;;;55.27;;
2213;SDS011;1113;42.018;23.986;2023-05-16T04:58:44;85.87;;;52.17;;
2213;SDS011;1113;42.018;23.986;2023-05-16T05:01:11;81.77;;;50.33;;
2213;SDS011;1113;42.018;23.986;2023-05-16T05:03:38;73.40;;;45.50;;
2213;SDS011;1113;42.018;23.986;2023-05-16T05:06:06;80.33;;;52.40;;
2213;SDS011;1113;42.018;23.986;2023-05-16T05:08:33;76.40;;;48.00;;
2213;SDS011;1113;42.018;23.986;2023-05-16T05:10:59;75.40;;;47.13;;
2213;SDS011;1113;42.018;23.986;2023-05-16T05:13:27;70.20;;;43.40;;
2213;SDS011;1113;42.018;23.986;2023-05-16T05:15:53;81.07;;;45.67;;
2213;SDS011;1113;42.018;23.986;2023-05-16T05:18:20;69.63;;;45.50;;
2213;SDS011;1113;42.018;23.986;2023-05-16T05:20:47;76.30;;;47.07;;
2213;SDS011;1113;42.018;23.986;2023-05-16T05:23:15;72.70;;;45.10;;
2213;SDS011;1113;42.018;23.986;2023-05-16T05:25:42;73.87;;;46.57;;
2213;SDS011;1113;42.018;23.986;2023-05-16T05:28:09;67.57;;;46.30;;
2213;SDS011;1113;42.018;23.986;2023-05-16T05:30:36;67.03;;;45.77;;
2213;SDS011;1113;42.018;23.986;2023-05-16T05:33:02;70.17;;;45.70;;
2213;SDS011;1113;42.018;23.986;2023-05-16T05:35:30;71.63;;;46.50;;
2213;SDS011;1113;42.018;23.986;2023-05-16T05:37:56;71.47;;;45.10;;
2213;SDS011;1113;42.018;23.986;2023-05-16T05:40:25;64.60;;;39.53;;
2213;SDS011;1113;42.018;23.986;2023-05-16T05:42:51;64.07;;;41.37;;
2213;SDS011;1113;42.018;23.986;2023-05-16T05:45:18;71.17;;;41.80;;
2213;SDS011;1113;42.018;23.986;2023-05-16T05:47:45;70.17;;;43.77;;
2213;SDS011;1113;42.018;23.986;2023-05-16T05:50:12;61.60;;;41.00;;
2213;SDS011;1113;42.018;23.986;2023-05-16T05:52:39;57.57;;;39.00;;
2213;SDS011;1113;42.018;23.986;2023-05-16T05:55:07;79.73;;;47.87;;
2213;SDS011;1113;42.018;23.986;2023-05-16T05:57:35;65.57;;;44.07;;
2213;SDS011;1113;42.018;23.986;2023-05-16T06:00:02;60.50;;;40.50;;
2213;SDS011;1113;42.018;23.986;2023-05-16T06:02:31;61.00;;;39.80;;
2213;SDS011;1113;42.018;23.986;2023-05-16T06:04:58;61.13;;;40.00;;
2213;SDS011;1113;42.018;23.986;2023-05-16T06:07:24;59.13;;;39.20;;
2213;SDS011;1113;42.018;23.986;2023-05-16T06:09:51;57.93;;;38.80;;
2213;SDS011;1113;42.018;23.986;2023-05-16T06:12:18;55.40;;;36.20;;
2213;SDS011;1113;42.018;23.986;2023-05-16T06:14:46;62.27;;;39.87;;
2213;SDS011;1113;42.018;23.986;2023-05-16T06:17:13;58.50;;;40.27;;
2213;SDS011;1113;42.018;23.986;2023-05-16T06:19:40;61.17;;;42.10;;
2213;SDS011;1113;42.018;23.986;2023-05-16T06:22:06;63.30;;;43.57;;
2213;SDS011;1113;42.018;23.986;2023-05-16T06:24:33;65.00;;;44.70;;
2213;SDS011;1113;42.018;23.986;2023-05-16T06:27:00;69.93;;;51.80;;
2213;SDS011;1113;42.018;23.986;2023-05-16T06:29:27;66.20;;;45.90;;
2213;SDS011;1113;42.018;23.986;2023-05-16T06:31:55;62.33;;;43.20;;
2213;SDS011;1113;42.018;23.986;2023-05-16T06:34:22;65.90;;;44.17;;
2213;SDS011;1113;42.018;23.986;2023-05-16T06:36:52;65.93;;;45.80;;
2213;SDS011;1113;42.018;23.986;2023-05-16T06:39:19;63.80;;;38.00;;
2213;SDS011;1113;42.018;23.986;2023-05-16T06:41:45;53.73;;;40.23;;
2213;SDS011;1113;42.018;23.986;2023-05-16T06:44:12;62.90;;;43.40;;
2213;SDS011;1113;42.018;23.986;2023-05-16T06:46:39;68.30;;;47.67;;
2213;SDS011;1113;42.018;23.986;2023-05-16T06:49:07;76.27;;;49.73;;
2213;SDS011;1113;42.018;23.986;2023-05-16T06:51:35;80.70;;;52.63;;
2213;SDS011;1113;42.018;23.986;2023-05-16T06:54:01;74.80;;;51.37;;
2213;SDS011;1113;42.018;23.986;2023-05-16T06:56:28;65.80;;;48.03;;
2213;SDS011;1113;42.018;23.986;2023-05-16T06:58:55;65.03;;;44.07;;
2213;SDS011;1113;42.018;23.986;2023-05-16T07:01:22;58.37;;;40.03;;
2213;SDS011;1113;42.018;23.986;2023-05-16T07:03:49;65.43;;;44.37;;
2213;SDS011;1113;42.018;23.986;2023-05-16T07:06:17;58.30;;;41.93;;
2213;SDS011;1113;42.018;23.986;2023-05-16T07:08:44;55.60;;;41.23;;
2213;SDS011;1113;42.018;23.986;2023-05-16T07:11:11;56.10;;;40.90;;
2213;SDS011;1113;42.018;23.986;2023-05-16T07:13:38;53.53;;;38.50;;
2213;SDS011;1113;42.018;23.986;2023-05-16T07:16:05;49.80;;;34.47;;
2213;SDS011;1113;42.018;23.986;2023-05-16T07:18:33;39.70;;;29.13;;
2213;SDS011;1113;42.018;23.986;2023-05-16T07:20:59;46.33;;;34.70;;
2213;SDS011;1113;42.018;23.986;2023-05-16T07:23:28;51.13;;;36.17;;
2213;SDS011;1113;42.018;23.986;2023-05-16T07:25:54;52.70;;;36.90;;
2213;SDS011;1113;42.018;23.986;2023-05-16T07:28:21;43.97;;;35.97;;
2213;SDS011;1113;42.018;23.986;2023-05-16T07:30:48;49.10;;;36.33;;
2213;SDS011;1113;42.018;23.986;2023-05-16T07:33:15;43.87;;;32.80;;
2213;SDS011;1113;42.018;23.986;2023-05-16T07:35:42;31.90;;;25.00;;
2213;SDS011;1113;42.018;23.986;2023-05-16T07:38:08;37.83;;;26.90;;
2213;SDS011;1113;42.018;23.986;2023-05-16T07:40:37;41.30;;;28.60;;
2213;SDS011;1113;42.018;23.986;2023-05-16T07:43:04;42.90;;;28.63;;
2213;SDS011;1113;42.018;23.986;2023-05-16T07:45:30;36.87;;;25.97;;
2213;SDS011;1113;42.018;23.986;2023-05-16T07:47:57;38.53;;;27.50;;
2213;SDS011;1113;42.018;23.986;2023-05-16T07:50:24;37.70;;;26.97;;
2213;SDS011;1113;42.018;23.986;2023-05-16T07:52:51;37.10;;;27.20;;
2213;SDS011;1113;42.018;23.986;2023-05-16T07:55:18;34.77;;;25.33;;
2213;SDS011;1113;42.018;23.986;2023-05-16T07:57:47;33.90;;;24.73;;
2213;SDS011;1113;42.018;23.986;2023-05-16T08:00:15;28.87;;;21.07;;
2213;SDS011;1113;42.018;23.986;2023-05-16T08:02:42;27.13;;;21.20;;
2213;SDS011;1113;42.018;23.986;2023-05-16T08:05:09;36.43;;;25.53;;
2213;SDS011;1113;42.018;23.986;2023-05-16T08:07:36;29.57;;;23.13;;
2213;SDS011;1113;42.018;23.986;2023-05-16T08:10:03;36.27;;;20.83;;
2213;SDS011;1113;42.018;23.986;2023-05-16T08:12:30;29.93;;;23.57;;
2213;SDS011;1113;42.018;23.986;2023-05-16T08:14:58;33.50;;;25.63;;
2213;SDS011;1113;42.018;23.986;2023-05-16T08:17:25;32.63;;;24.23;;
2213;SDS011;1113;42.018;23.986;2023-05-16T08:19:52;26.93;;;20.70;;
2213;SDS011;1113;42.018;23.986;2023-05-16T08:22:19;33.83;;;24.30;;
2213;SDS011;1113;42.018;23.986;2023-05-16T08:24:45;28.63;;;24.00;;
2213;SDS011;1113;42.018;23.986;2023-05-16T08:27:12;28.10;;;19.93;;
2213;SDS011;1113;42.018;23.986;2023-05-16T08:29:39;24.10;;;18.47;;
2213;SDS011;1113;42.018;23.986;2023-05-16T08:32:07;23.80;;;20.53;;
2213;SDS011;1113;42.018;23.986;2023-05-16T08:34:35;22.67;;;17.10;;
2213;SDS011;1113;42.018;23.986;2023-05-16T08:37:01;27.50;;;20.53;;
2213;SDS011;1113;42.018;23.986;2023-05-16T08:39:31;28.90;;;22.60;;
2213;SDS011;1113;42.018;23.986;2023-05-16T08:41:58;26.10;;;22.40;;
2213;SDS011;1113;42.018;23.986;2023-05-16T08:44:27;25.10;;;19.20;;
2213;SDS011;1113;42.018;23.986;2023-05-16T08:46:54;25.90;;;17.57;;
2213;SDS011;1113;42.018;23.986;2023-05-16T08:49:24;22.57;;;18.90;;
2213;SDS011;1113;42.018;23.986;2023-05-16T08:51:55;25.17;;;19.20;;
2213;SDS011;1113;42.018;23.986;2023-05-16T08:54:22;18.90;;;16.73;;
2213;SDS011;1113;42.018;23.986;2023-05-16T08:56:50;20.60;;;14.33;;
2213;SDS011;1113;42.018;23.986;2023-05-16T08:59:18;30.50;;;18.30;;
2213;SDS011;1113;42.018;23.986;2023-05-16T09:01:45;28.47;;;16.80;;
2213;SDS011;1113;42.018;23.986;2023-05-16T09:04:12;22.40;;;15.07;;
2213;SDS011;1113;42.018;23.986;2023-05-16T09:06:41;23.93;;;16.37;;
2213;SDS011;1113;42.018;23.986;2023-05-16T09:09:08;19.97;;;12.93;;
2213;SDS011;1113;42.018;23.986;2023-05-16T09:11:37;20.50;;;12.27;;
2213;SDS011;1113;42.018;23.986;2023-05-16T09:14:03;19.23;;;11.60;;
2213;SDS011;1113;42.018;23.986;2023-05-16T09:16:30;13.23;;;11.17;;
2213;SDS011;1113;42.018;23.986;2023-05-16T09:18:58;15.87;;;11.13;;
2213;SDS011;1113;42.018;23.986;2023-05-16T09:21:26;17.87;;;11.13;;
2213;SDS011;1113;42.018;23.986;2023-05-16T09:23:55;14.07;;;10.80;;
2213;SDS011;1113;42.018;23.986;2023-05-16T09:26:22;16.80;;;10.80;;
2213;SDS011;1113;42.018;23.986;2023-05-16T09:28:52;17.30;;;11.00;;
2213;SDS011;1113;42.018;23.986;2023-05-16T09:31:19;18.27;;;11.50;;
2213;SDS011;1113;42.018;23.986;2023-05-16T09:33:47;16.13;;;10.23;;
2213;SDS011;1113;42.018;23.986;2023-05-16T09:36:14;13.27;;;9.37;;
2213;SDS011;1113;42.018;23.986;2023-05-16T09:38:41;14.67;;;9.80;;
2213;SDS011;1113;42.018;23.986;2023-05-16T09:41:09;15.87;;;11.20;;
2213;SDS011;1113;42.018;23.986;2023-05-16T09:43:37;21.47;;;13.60;;
2213;SDS011;1113;42.018;23.986;2023-05-16T09:46:05;17.83;;;13.57;;
2213;SDS011;1113;42.018;23.986;2023-05-16T09:48:32;13.63;;;11.50;;
2213;SDS011;1113;42.018;23.986;2023-05-16T09:50:59;16.27;;;13.10;;
2213;SDS011;1113;42.018;23.986;2023-05-16T09:53:29;18.67;;;13.80;;
2213;SDS011;1113;42.018;23.986;2023-05-16T09:56:01;24.47;;;17.60;;
2213;SDS011;1113;42.018;23.986;2023-05-16T09:58:30;21.43;;;17.13;;
2213;SDS011;1113;42.018;23.986;2023-05-16T10:00:58;22.47;;;16.60;;
2213;SDS011;1113;42.018;23.986;2023-05-16T10:03:26;21.50;;;16.00;;
2213;SDS011;1113;42.018;23.986;2023-05-16T10:05:54;23.67;;;17.50;;
2213;SDS011;1113;42.018;23.986;2023-05-16T10:08:23;19.13;;;16.10;;
2213;SDS011;1113;42.018;23.986;2023-05-16T10:10:52;19.43;;;15.60;;
2213;SDS011;1113;42.018;23.986;2023-05-16T10:13:19;17.93;;;14.10;;
2213;SDS011;1113;42.018;23.986;2023-05-16T10:15:49;18.23;;;14.40;;
2213;SDS011;1113;42.018;23.986;2023-05-16T10:18:17;19.57;;;14.07;;
2213;SDS011;1113;42.018;23.986;2023-05-16T10:20:45;15.70;;;14.10;;
2213;SDS011;1113;42.018;23.986;2023-05-16T10:23:17;20.30;;;16.80;;
2213;SDS011;1113;42.018;23.986;2023-05-16T10:25:45;22.73;;;17.83;;
2213;SDS011;1113;42.018;23.986;2023-05-16T10:28:13;20.30;;;16.40;;
2213;SDS011;1113;42.018;23.986;2023-05-16T10:30:41;23.70;;;16.87;;
2213;SDS011;1113;42.018;23.986;2023-05-16T10:33:11;21.13;;;18.43;;
2213;SDS011;1113;42.018;23.986;2023-05-16T10:35:39;21.10;;;17.20;;
2213;SDS011;1113;42.018;23.986;2023-05-16T10:38:06;22.67;;;16.33;;
2213;SDS011;1113;42.018;23.986;2023-05-16T10:40:34;22.70;;;18.60;;
2213;SDS011;1113;42.018;23.986;2023-05-16T10:43:03;22.10;;;17.07;;
2213;SDS011;1113;42.018;23.986;2023-05-16T10:45:31;20.40;;;15.97;;
2213;SDS011;1113;42.018;23.986;2023-05-16T10:47:58;22.40;;;18.30;;
2213;SDS011;1113;42.018;23.986;2023-05-16T10:50:33;22.40;;;17.63;;
2213;SDS011;1113;42.018;23.986;2023-05-16T10:53:14;27.93;;;18.47;;
2213;SDS011;1113;42.018;23.986;2023-05-16T10:55:48;23.50;;;19.63;;
2213;SDS011;1113;42.018;23.986;2023-05-16T10:58:22;21.20;;;17.43;;
2213;SDS011;1113;42.018;23.986;2023-05-16T11:04:01;23.50;;;19.70;;
2213;SDS011;1113;42.018;23.986;2023-05-16T11:06:32;23.57;;;18.83;;
2213;SDS011;1113;42.018;23.986;2023-05-16T11:09:03;26.37;;;17.97;;
2213;SDS011;1113;42.018;23.986;2023-05-16T11:11:37;22.00;;;18.43;;
2213;SDS011;1113;42.018;23.986;2023-05-16T11:14:05;26.27;;;19.67;;
2213;SDS011;1113;42.018;23.986;2023-05-16T11:16:32;27.10;;;18.17;;
2213;SDS011;1113;42.018;23.986;2023-05-16T11:19:03;24.80;;;18.00;;
2213;SDS011;1113;42.018;23.986;2023-05-16T11:24:34;21.53;;;16.90;;
2213;SDS011;1113;42.018;23.986;2023-05-16T11:27:02;26.27;;;18.63;;
2213;SDS011;1113;42.018;23.986;2023-05-16T11:29:30;24.80;;;18.50;;
2213;SDS011;1113;42.018;23.986;2023-05-16T11:31:58;25.77;;;18.53;;
2213;SDS011;1113;42.018;23.986;2023-05-16T11:34:25;27.30;;;19.10;;
2213;SDS011;1113;42.018;23.986;2023-05-16T11:36:52;22.47;;;18.60;;
2213;SDS011;1113;42.018;23.986;2023-05-16T11:39:21;26.00;;;18.20;;
2213;SDS011;1113;42.018;23.986;2023-05-16T11:41:49;21.77;;;17.93;;
2213;SDS011;1113;42.018;23.986;2023-05-16T11:44:16;24.33;;;18.63;;
2213;SDS011;1113;42.018;23.986;2023-05-16T11:46:43;25.87;;;18.50;;
2213;SDS011;1113;42.018;23.986;2023-05-16T11:49:11;23.40;;;17.77;;
2213;SDS011;1113;42.018;23.986;2023-05-16T11:51:38;28.53;;;19.47;;
2213;SDS011;1113;42.018;23.986;2023-05-16T11:54:06;23.60;;;19.33;;
2213;SDS011;1113;42.018;23.986;2023-05-16T11:56:37;25.30;;;19.47;;
2213;SDS011;1113;42.018;23.986;2023-05-16T11:59:05;43.93;;;24.23;;
2213;SDS011;1113;42.018;23.986;2023-05-16T12:01:32;33.03;;;22.90;;
2213;SDS011;1113;42.018;23.986;2023-05-16T12:04:01;27.90;;;22.77;;
2213;SDS011;1113;42.018;23.986;2023-05-16T12:06:33;24.83;;;21.00;;
2213;SDS011;1113;42.018;23.986;2023-05-16T12:09:00;24.70;;;18.97;;
2213;SDS011;1113;42.018;23.986;2023-05-16T12:11:31;20.67;;;16.90;;
2213;SDS011;1113;42.018;23.986;2023-05-16T12:13:59;22.20;;;17.40;;
2213;SDS011;1113;42.018;23.986;2023-05-16T12:16:26;20.70;;;15.80;;
2213;SDS011;1113;42.018;23.986;2023-05-16T12:18:53;22.00;;;17.90;;
2213;SDS011;1113;42.018;23.986;2023-05-16T12:21:20;17.83;;;13.23;;
2213;SDS011;1113;42.018;23.986;2023-05-16T12:23:47;16.77;;;12.80;;
2213;SDS011;1113;42.018;23.986;2023-05-16T12:26:14;16.70;;;12.63;;
2213;SDS011;1113;42.018;23.986;2023-05-16T12:28:41;21.33;;;12.80;;
2213;SDS011;1113;42.018;23.986;2023-05-16T12:31:11;20.03;;;16.13;;
2213;SDS011;1113;42.018;23.986;2023-05-16T12:33:45;19.00;;;16.70;;
2213;SDS011;1113;42.018;23.986;2023-05-16T12:36:12;20.90;;;16.90;;
2213;SDS011;1113;42.018;23.986;2023-05-16T12:38:40;19.10;;;16.00;;
2213;SDS011;1113;42.018;23.986;2023-05-16T12:41:08;23.10;;;16.70;;
2213;SDS011;1113;42.018;23.986;2023-05-16T12:43:35;27.07;;;15.10;;
2213;SDS011;1113;42.018;23.986;2023-05-16T12:46:02;16.53;;;11.40;;
2213;SDS011;1113;42.018;23.986;2023-05-16T12:48:37;16.87;;;9.60;;
2213;SDS011;1113;42.018;23.986;2023-05-16T12:51:12;15.00;;;10.43;;
2213;SDS011;1113;42.018;23.986;2023-05-16T12:53:40;16.30;;;9.70;;
2213;SDS011;1113;42.018;23.986;2023-05-16T12:56:09;16.50;;;11.23;;
2213;SDS011;1113;42.018;23.986;2023-05-16T12:58:36;52.63;;;39.90;;
2213;SDS011;1113;42.018;23.986;2023-05-16T13:01:03;43.23;;;30.80;;
2213;SDS011;1113;42.018;23.986;2023-05-16T13:03:31;32.47;;;24.20;;
2213;SDS011;1113;42.018;23.986;2023-05-16T13:06:00;27.70;;;22.07;;
2213;SDS011;1113;42.018;23.986;2023-05-16T13:08:28;25.60;;;18.43;;
2213;SDS011;1113;42.018;23.986;2023-05-16T13:10:55;26.50;;;18.67;;
2213;SDS011;1113;42.018;23.986;2023-05-16T13:13:22;39.53;;;25.57;;
2213;SDS011;1113;42.018;23.986;2023-05-16T13:15:49;41.40;;;25.57;;
2213;SDS011;1113;42.018;23.986;2023-05-16T13:18:16;21.60;;;17.07;;
2213;SDS011;1113;42.018;23.986;2023-05-16T13:20:43;20.50;;;16.00;;
2213;SDS011;1113;42.018;23.986;2023-05-16T13:23:11;26.20;;;20.43;;
2213;SDS011;1113;42.018;23.986;2023-05-16T13:25:38;39.60;;;23.47;;
2213;SDS011;1113;42.018;23.986;2023-05-16T13:28:05;24.40;;;17.70;;
2213;SDS011;1113;42.018;23.986;2023-05-16T13:30:32;34.77;;;19.37;;
2213;SDS011;1113;42.018;23.986;2023-05-16T13:32:59;32.17;;;25.37;;
2213;SDS011;1113;42.018;23.986;2023-05-16T13:35:26;22.43;;;14.70;;
2213;SDS011;1113;42.018;23.986;2023-05-16T13:37:53;20.43;;;10.37;;
2213;SDS011;1113;42.018;23.986;2023-05-16T13:40:21;12.40;;;7.90;;
2213;SDS011;1113;42.018;23.986;2023-05-16T13:42:48;27.50;;;15.70;;
2213;SDS011;1113;42.018;23.986;2023-05-16T13:45:15;11.57;;;6.90;;
2213;SDS011;1113;42.018;23.986;2023-05-16T13:47:42;10.87;;;4.93;;
2213;SDS011;1113;42.018;23.986;2023-05-16T13:50:09;9.67;;;5.30;;
2213;SDS011;1113;42.018;23.986;2023-05-16T13:52:36;13.63;;;5.67;;
2213;SDS011;1113;42.018;23.986;2023-05-16T13:55:04;14.77;;;5.80;;
2213;SDS011;1113;42.018;23.986;2023-05-16T13:57:33;13.80;;;7.10;;
2213;SDS011;1113;42.018;23.986;2023-05-16T14:00:00;18.50;;;5.73;;
2213;SDS011;1113;42.018;23.986;2023-05-16T14:02:29;9.30;;;4.20;;
2213;SDS011;1113;42.018;23.986;2023-05-16T14:04:56;17.73;;;5.90;;
2213;SDS011;1113;42.018;23.986;2023-05-16T14:07:23;13.90;;;6.37;;
2213;SDS011;1113;42.018;23.986;2023-05-16T14:09:50;11.93;;;6.27;;
2213;SDS011;1113;42.018;23.986;2023-05-16T14:12:17;10.43;;;4.20;;
2213;SDS011;1113;42.018;23.986;2023-05-16T14:14:45;12.53;;;4.73;;
2213;SDS011;1113;42.018;23.986;2023-05-16T14:17:12;10.83;;;4.97;;
2213;SDS011;1113;42.018;23.986;2023-05-16T14:19:38;10.47;;;4.40;;
2213;SDS011;1113;42.018;23.986;2023-05-16T14:22:05;10.23;;;4.73;;
2213;SDS011;1113;42.018;23.986;2023-05-16T14:24:32;10.43;;;4.70;;
2213;SDS011;1113;42.018;23.986;2023-05-16T14:26:59;10.47;;;4.77;;
2213;SDS011;1113;42.018;23.986;2023-05-16T14:29:25;13.13;;;4.17;;
2213;SDS011;1113;42.018;23.986;2023-05-16T14:31:54;9.30;;;3.90;;
2213;SDS011;1113;42.018;23.986;2023-05-16T14:34:21;15.97;;;5.17;;
2213;SDS011;1113;42.018;23.986;2023-05-16T14:36:48;11.90;;;4.87;;
2213;SDS011;1113;42.018;23.986;2023-05-16T14:39:14;10.43;;;4.67;;
2213;SDS011;1113;42.018;23.986;2023-05-16T14:41:41;16.70;;;4.87;;
2213;SDS011;1113;42.018;23.986;2023-05-16T14:44:08;12.77;;;5.80;;